Terminal Aerodrome Forecast
Issued by NWS

Home | Current Version | Previous Version | Graphics & Text | Print | Product List | Glossary On
Versions: 1 2 3 4 5 6 7 8 9 10 11 12 13 14 15
000
FTUS43 KGRB 162330
TAFAUW
TAF
KAUW 162330Z 1700/1724 20009KT P6SM SCT050 BKN200
     FM170500 20006KT P6SM -SHRA BKN080
     FM171100 27006KT P6SM VCSH OVC025
     FM171300 28007KT P6SM BKN080
     FM171800 29011KT P6SM BKN040=

USA.gov is the U.S. government's official web portal to all federal, state and local government web resources and services.